sensor_id;sensor_type;location;lat;lon;timestamp;P1;durP1;ratioP1;P2;durP2;ratioP2
74650;SDS011;63169;46.042;14.592;2022-12-29T00:02:19;21.40;;;11.10;;
74650;SDS011;63169;46.042;14.592;2022-12-29T00:04:44;18.10;;;10.68;;
74650;SDS011;63169;46.042;14.592;2022-12-29T00:07:10;22.52;;;11.30;;
74650;SDS011;63169;46.042;14.592;2022-12-29T00:09:35;20.60;;;10.75;;
74650;SDS011;63169;46.042;14.592;2022-12-29T00:12:01;19.90;;;12.00;;
74650;SDS011;63169;46.042;14.592;2022-12-29T00:14:27;19.92;;;12.20;;
74650;SDS011;63169;46.042;14.592;2022-12-29T00:17:12;19.10;;;10.30;;
74650;SDS011;63169;46.042;14.592;2022-12-29T00:19:38;21.35;;;10.73;;
74650;SDS011;63169;46.042;14.592;2022-12-29T00:22:21;17.48;;;11.73;;
74650;SDS011;63169;46.042;14.592;2022-12-29T00:25:07;19.15;;;9.80;;
74650;SDS011;63169;46.042;14.592;2022-12-29T00:27:34;18.75;;;9.20;;
74650;SDS011;63169;46.042;14.592;2022-12-29T00:30:19;17.08;;;10.18;;
74650;SDS011;63169;46.042;14.592;2022-12-29T00:33:11;16.20;;;9.10;;
74650;SDS011;63169;46.042;14.592;2022-12-29T00:36:01;17.77;;;9.80;;
74650;SDS011;63169;46.042;14.592;2022-12-29T00:38:29;17.65;;;9.77;;
74650;SDS011;63169;46.042;14.592;2022-12-29T00:41:15;18.85;;;12.05;;
74650;SDS011;63169;46.042;14.592;2022-12-29T00:43:59;18.55;;;10.48;;
74650;SDS011;63169;46.042;14.592;2022-12-29T00:46:33;16.05;;;8.68;;
74650;SDS011;63169;46.042;14.592;2022-12-29T00:48:59;17.95;;;9.90;;
74650;SDS011;63169;46.042;14.592;2022-12-29T00:51:43;17.23;;;9.18;;
74650;SDS011;63169;46.042;14.592;2022-12-29T00:54:09;16.30;;;9.30;;
74650;SDS011;63169;46.042;14.592;2022-12-29T00:56:34;15.88;;;8.70;;
74650;SDS011;63169;46.042;14.592;2022-12-29T00:59:01;18.60;;;9.25;;
74650;SDS011;63169;46.042;14.592;2022-12-29T01:03:52;14.57;;;7.60;;
74650;SDS011;63169;46.042;14.592;2022-12-29T01:06:17;14.85;;;8.27;;
74650;SDS011;63169;46.042;14.592;2022-12-29T01:08:43;15.38;;;7.72;;
74650;SDS011;63169;46.042;14.592;2022-12-29T01:11:10;14.93;;;7.95;;
74650;SDS011;63169;46.042;14.592;2022-12-29T01:13:37;15.73;;;9.55;;
74650;SDS011;63169;46.042;14.592;2022-12-29T01:16:03;14.68;;;7.75;;
74650;SDS011;63169;46.042;14.592;2022-12-29T01:18:30;18.15;;;8.57;;
74650;SDS011;63169;46.042;14.592;2022-12-29T01:21:00;18.05;;;9.05;;
74650;SDS011;63169;46.042;14.592;2022-12-29T01:23:26;15.23;;;8.07;;
74650;SDS011;63169;46.042;14.592;2022-12-29T01:25:51;15.43;;;7.75;;
74650;SDS011;63169;46.042;14.592;2022-12-29T01:28:17;16.83;;;9.35;;
74650;SDS011;63169;46.042;14.592;2022-12-29T01:30:42;14.45;;;8.30;;
74650;SDS011;63169;46.042;14.592;2022-12-29T01:33:07;12.82;;;7.15;;
74650;SDS011;63169;46.042;14.592;2022-12-29T01:35:33;15.07;;;8.25;;
74650;SDS011;63169;46.042;14.592;2022-12-29T01:37:58;14.10;;;10.15;;
74650;SDS011;63169;46.042;14.592;2022-12-29T01:40:24;13.20;;;9.27;;
74650;SDS011;63169;46.042;14.592;2022-12-29T01:42:50;12.38;;;7.20;;
74650;SDS011;63169;46.042;14.592;2022-12-29T01:45:16;15.57;;;7.35;;
74650;SDS011;63169;46.042;14.592;2022-12-29T01:47:44;14.63;;;7.75;;
74650;SDS011;63169;46.042;14.592;2022-12-29T01:53:01;17.65;;;8.27;;
74650;SDS011;63169;46.042;14.592;2022-12-29T01:55:31;20.98;;;9.27;;
74650;SDS011;63169;46.042;14.592;2022-12-29T01:57:59;16.13;;;9.20;;
74650;SDS011;63169;46.042;14.592;2022-12-29T02:00:26;19.20;;;9.88;;
74650;SDS011;63169;46.042;14.592;2022-12-29T02:02:52;20.25;;;8.93;;
74650;SDS011;63169;46.042;14.592;2022-12-29T02:05:38;17.83;;;9.68;;
74650;SDS011;63169;46.042;14.592;2022-12-29T02:08:05;15.50;;;8.65;;
74650;SDS011;63169;46.042;14.592;2022-12-29T02:10:31;16.17;;;7.47;;
74650;SDS011;63169;46.042;14.592;2022-12-29T02:12:58;16.65;;;7.82;;
74650;SDS011;63169;46.042;14.592;2022-12-29T02:15:27;14.68;;;7.63;;
74650;SDS011;63169;46.042;14.592;2022-12-29T02:18:02;16.58;;;8.32;;
74650;SDS011;63169;46.042;14.592;2022-12-29T02:26:27;15.35;;;8.70;;
74650;SDS011;63169;46.042;14.592;2022-12-29T02:46:19;17.10;;;8.25;;
74650;SDS011;63169;46.042;14.592;2022-12-29T02:48:52;13.77;;;7.57;;
74650;SDS011;63169;46.042;14.592;2022-12-29T02:54:32;14.35;;;7.28;;
74650;SDS011;63169;46.042;14.592;2022-12-29T02:57:27;13.90;;;8.23;;
74650;SDS011;63169;46.042;14.592;2022-12-29T03:02:43;15.40;;;8.50;;
74650;SDS011;63169;46.042;14.592;2022-12-29T03:10:42;14.32;;;7.63;;
74650;SDS011;63169;46.042;14.592;2022-12-29T03:19:15;14.27;;;7.38;;
74650;SDS011;63169;46.042;14.592;2022-12-29T03:21:46;13.93;;;6.25;;
74650;SDS011;63169;46.042;14.592;2022-12-29T03:24:34;15.57;;;7.40;;
74650;SDS011;63169;46.042;14.592;2022-12-29T03:27:04;15.88;;;7.38;;
74650;SDS011;63169;46.042;14.592;2022-12-29T03:29:35;13.30;;;6.88;;
74650;SDS011;63169;46.042;14.592;2022-12-29T03:32:05;14.63;;;9.55;;
74650;SDS011;63169;46.042;14.592;2022-12-29T03:34:32;15.60;;;7.15;;
74650;SDS011;63169;46.042;14.592;2022-12-29T03:36:59;18.52;;;8.10;;
74650;SDS011;63169;46.042;14.592;2022-12-29T03:39:27;13.70;;;6.20;;
74650;SDS011;63169;46.042;14.592;2022-12-29T03:42:01;12.48;;;6.03;;
74650;SDS011;63169;46.042;14.592;2022-12-29T03:44:32;15.02;;;8.25;;
74650;SDS011;63169;46.042;14.592;2022-12-29T03:46:59;17.27;;;8.70;;
74650;SDS011;63169;46.042;14.592;2022-12-29T03:49:25;15.65;;;7.28;;
74650;SDS011;63169;46.042;14.592;2022-12-29T03:51:50;16.60;;;11.13;;
74650;SDS011;63169;46.042;14.592;2022-12-29T03:54:16;13.13;;;6.18;;
74650;SDS011;63169;46.042;14.592;2022-12-29T03:56:41;14.52;;;7.10;;
74650;SDS011;63169;46.042;14.592;2022-12-29T03:59:06;12.23;;;7.07;;
74650;SDS011;63169;46.042;14.592;2022-12-29T04:01:32;18.17;;;8.48;;
74650;SDS011;63169;46.042;14.592;2022-12-29T04:03:57;15.85;;;7.72;;
74650;SDS011;63169;46.042;14.592;2022-12-29T04:06:22;19.52;;;8.57;;
74650;SDS011;63169;46.042;14.592;2022-12-29T04:08:48;17.73;;;8.80;;
74650;SDS011;63169;46.042;14.592;2022-12-29T04:11:14;19.85;;;8.00;;
74650;SDS011;63169;46.042;14.592;2022-12-29T04:13:39;15.48;;;8.00;;
74650;SDS011;63169;46.042;14.592;2022-12-29T04:16:06;16.92;;;7.03;;
74650;SDS011;63169;46.042;14.592;2022-12-29T04:18:31;14.98;;;6.97;;
74650;SDS011;63169;46.042;14.592;2022-12-29T04:20:57;16.70;;;8.20;;
74650;SDS011;63169;46.042;14.592;2022-12-29T04:23:25;13.57;;;7.22;;
74650;SDS011;63169;46.042;14.592;2022-12-29T04:25:51;14.75;;;7.65;;
74650;SDS011;63169;46.042;14.592;2022-12-29T04:28:17;14.35;;;6.47;;
74650;SDS011;63169;46.042;14.592;2022-12-29T04:30:43;15.93;;;8.10;;
74650;SDS011;63169;46.042;14.592;2022-12-29T04:33:09;18.65;;;7.25;;
74650;SDS011;63169;46.042;14.592;2022-12-29T04:35:34;16.55;;;6.80;;
74650;SDS011;63169;46.042;14.592;2022-12-29T04:38:00;16.60;;;6.53;;
74650;SDS011;63169;46.042;14.592;2022-12-29T04:40:25;12.32;;;6.28;;
74650;SDS011;63169;46.042;14.592;2022-12-29T04:42:50;16.90;;;6.72;;
74650;SDS011;63169;46.042;14.592;2022-12-29T04:45:16;18.65;;;8.43;;
74650;SDS011;63169;46.042;14.592;2022-12-29T04:47:42;13.95;;;7.07;;
74650;SDS011;63169;46.042;14.592;2022-12-29T04:50:07;15.15;;;6.63;;
74650;SDS011;63169;46.042;14.592;2022-12-29T04:52:33;13.38;;;6.95;;
74650;SDS011;63169;46.042;14.592;2022-12-29T04:54:59;14.68;;;7.00;;
74650;SDS011;63169;46.042;14.592;2022-12-29T04:57:24;12.45;;;6.32;;
74650;SDS011;63169;46.042;14.592;2022-12-29T04:59:50;15.85;;;5.90;;
74650;SDS011;63169;46.042;14.592;2022-12-29T05:02:15;14.55;;;6.88;;
74650;SDS011;63169;46.042;14.592;2022-12-29T05:04:41;15.45;;;7.35;;
74650;SDS011;63169;46.042;14.592;2022-12-29T05:07:06;17.17;;;7.82;;
74650;SDS011;63169;46.042;14.592;2022-12-29T05:09:32;17.92;;;7.43;;
74650;SDS011;63169;46.042;14.592;2022-12-29T05:11:57;17.63;;;8.95;;
74650;SDS011;63169;46.042;14.592;2022-12-29T05:14:22;16.73;;;8.05;;
74650;SDS011;63169;46.042;14.592;2022-12-29T05:16:48;17.30;;;7.53;;
74650;SDS011;63169;46.042;14.592;2022-12-29T05:19:13;13.30;;;7.50;;
74650;SDS011;63169;46.042;14.592;2022-12-29T05:21:39;15.88;;;7.43;;
74650;SDS011;63169;46.042;14.592;2022-12-29T05:24:04;13.77;;;7.45;;
74650;SDS011;63169;46.042;14.592;2022-12-29T05:26:30;15.07;;;7.38;;
74650;SDS011;63169;46.042;14.592;2022-12-29T05:28:55;12.88;;;7.07;;
74650;SDS011;63169;46.042;14.592;2022-12-29T05:31:21;16.80;;;8.20;;
74650;SDS011;63169;46.042;14.592;2022-12-29T05:33:46;18.20;;;9.02;;
74650;SDS011;63169;46.042;14.592;2022-12-29T05:36:11;15.02;;;7.82;;
74650;SDS011;63169;46.042;14.592;2022-12-29T05:38:37;16.20;;;9.10;;
74650;SDS011;63169;46.042;14.592;2022-12-29T05:41:03;19.90;;;8.77;;
74650;SDS011;63169;46.042;14.592;2022-12-29T05:43:28;16.67;;;8.48;;
74650;SDS011;63169;46.042;14.592;2022-12-29T05:45:53;19.55;;;9.20;;
74650;SDS011;63169;46.042;14.592;2022-12-29T05:48:20;16.30;;;9.38;;
74650;SDS011;63169;46.042;14.592;2022-12-29T05:50:49;18.45;;;10.70;;
74650;SDS011;63169;46.042;14.592;2022-12-29T05:53:15;19.73;;;10.13;;
74650;SDS011;63169;46.042;14.592;2022-12-29T05:55:40;20.67;;;11.10;;
74650;SDS011;63169;46.042;14.592;2022-12-29T05:58:05;24.13;;;9.98;;
74650;SDS011;63169;46.042;14.592;2022-12-29T06:00:31;22.27;;;10.10;;
74650;SDS011;63169;46.042;14.592;2022-12-29T06:02:56;17.88;;;10.90;;
74650;SDS011;63169;46.042;14.592;2022-12-29T06:05:22;18.67;;;9.52;;
74650;SDS011;63169;46.042;14.592;2022-12-29T06:07:47;20.77;;;9.23;;
74650;SDS011;63169;46.042;14.592;2022-12-29T06:10:12;19.73;;;9.27;;
74650;SDS011;63169;46.042;14.592;2022-12-29T06:12:38;18.85;;;10.40;;
74650;SDS011;63169;46.042;14.592;2022-12-29T06:15:03;20.00;;;10.45;;
74650;SDS011;63169;46.042;14.592;2022-12-29T06:17:29;19.80;;;12.13;;
74650;SDS011;63169;46.042;14.592;2022-12-29T06:19:55;18.55;;;11.43;;
74650;SDS011;63169;46.042;14.592;2022-12-29T06:22:20;21.23;;;12.27;;
74650;SDS011;63169;46.042;14.592;2022-12-29T06:24:45;25.00;;;13.55;;
74650;SDS011;63169;46.042;14.592;2022-12-29T06:27:11;23.92;;;12.82;;
74650;SDS011;63169;46.042;14.592;2022-12-29T06:29:36;22.27;;;12.63;;
74650;SDS011;63169;46.042;14.592;2022-12-29T06:32:02;19.83;;;10.75;;
74650;SDS011;63169;46.042;14.592;2022-12-29T06:34:28;18.15;;;10.60;;
74650;SDS011;63169;46.042;14.592;2022-12-29T06:36:54;20.02;;;11.57;;
74650;SDS011;63169;46.042;14.592;2022-12-29T06:39:19;22.70;;;11.18;;
74650;SDS011;63169;46.042;14.592;2022-12-29T06:41:45;23.98;;;11.48;;
74650;SDS011;63169;46.042;14.592;2022-12-29T06:44:10;26.45;;;12.13;;
74650;SDS011;63169;46.042;14.592;2022-12-29T06:46:35;26.05;;;12.65;;
74650;SDS011;63169;46.042;14.592;2022-12-29T06:49:01;27.10;;;12.27;;
74650;SDS011;63169;46.042;14.592;2022-12-29T06:51:27;26.42;;;14.30;;
74650;SDS011;63169;46.042;14.592;2022-12-29T06:53:52;24.77;;;13.32;;
74650;SDS011;63169;46.042;14.592;2022-12-29T06:56:17;26.67;;;13.15;;
74650;SDS011;63169;46.042;14.592;2022-12-29T06:58:43;27.02;;;12.48;;
74650;SDS011;63169;46.042;14.592;2022-12-29T07:01:08;30.90;;;14.68;;
74650;SDS011;63169;46.042;14.592;2022-12-29T07:03:34;26.60;;;13.98;;
74650;SDS011;63169;46.042;14.592;2022-12-29T07:06:00;27.02;;;19.20;;
74650;SDS011;63169;46.042;14.592;2022-12-29T07:08:25;35.60;;;20.42;;
74650;SDS011;63169;46.042;14.592;2022-12-29T07:10:50;33.10;;;17.58;;
74650;SDS011;63169;46.042;14.592;2022-12-29T07:13:16;29.13;;;18.02;;
74650;SDS011;63169;46.042;14.592;2022-12-29T07:15:41;23.73;;;15.27;;
74650;SDS011;63169;46.042;14.592;2022-12-29T07:18:07;18.42;;;10.95;;
74650;SDS011;63169;46.042;14.592;2022-12-29T07:20:32;19.55;;;10.65;;
74650;SDS011;63169;46.042;14.592;2022-12-29T07:22:57;18.42;;;11.02;;
74650;SDS011;63169;46.042;14.592;2022-12-29T07:25:23;17.55;;;10.80;;
74650;SDS011;63169;46.042;14.592;2022-12-29T07:27:49;21.40;;;11.50;;
74650;SDS011;63169;46.042;14.592;2022-12-29T07:30:14;18.50;;;10.02;;
74650;SDS011;63169;46.042;14.592;2022-12-29T07:32:40;19.10;;;10.38;;
74650;SDS011;63169;46.042;14.592;2022-12-29T07:35:21;17.48;;;8.93;;
74650;SDS011;63169;46.042;14.592;2022-12-29T07:37:46;18.40;;;8.65;;
74650;SDS011;63169;46.042;14.592;2022-12-29T07:40:11;17.67;;;9.30;;
74650;SDS011;63169;46.042;14.592;2022-12-29T07:42:37;18.98;;;13.23;;
74650;SDS011;63169;46.042;14.592;2022-12-29T07:45:03;19.80;;;10.73;;
74650;SDS011;63169;46.042;14.592;2022-12-29T07:47:29;20.25;;;10.05;;
74650;SDS011;63169;46.042;14.592;2022-12-29T07:49:55;23.95;;;12.13;;
74650;SDS011;63169;46.042;14.592;2022-12-29T07:52:20;26.10;;;12.35;;
74650;SDS011;63169;46.042;14.592;2022-12-29T07:54:45;31.42;;;19.60;;
74650;SDS011;63169;46.042;14.592;2022-12-29T07:57:11;25.45;;;13.15;;
74650;SDS011;63169;46.042;14.592;2022-12-29T07:59:36;26.42;;;15.63;;
74650;SDS011;63169;46.042;14.592;2022-12-29T08:02:02;29.98;;;15.82;;
74650;SDS011;63169;46.042;14.592;2022-12-29T08:04:27;31.15;;;16.33;;
74650;SDS011;63169;46.042;14.592;2022-12-29T08:06:52;26.95;;;13.00;;
74650;SDS011;63169;46.042;14.592;2022-12-29T08:09:18;26.88;;;13.15;;
74650;SDS011;63169;46.042;14.592;2022-12-29T08:11:43;29.63;;;14.30;;
74650;SDS011;63169;46.042;14.592;2022-12-29T08:14:09;27.73;;;13.25;;
74650;SDS011;63169;46.042;14.592;2022-12-29T08:16:34;30.10;;;14.82;;
74650;SDS011;63169;46.042;14.592;2022-12-29T08:19:00;30.92;;;15.48;;
74650;SDS011;63169;46.042;14.592;2022-12-29T08:21:29;26.08;;;14.77;;
74650;SDS011;63169;46.042;14.592;2022-12-29T08:23:54;28.88;;;15.90;;
74650;SDS011;63169;46.042;14.592;2022-12-29T08:26:20;33.95;;;15.30;;
74650;SDS011;63169;46.042;14.592;2022-12-29T08:28:45;22.33;;;14.23;;
74650;SDS011;63169;46.042;14.592;2022-12-29T08:31:10;29.98;;;16.02;;
74650;SDS011;63169;46.042;14.592;2022-12-29T08:33:36;27.05;;;13.77;;
74650;SDS011;63169;46.042;14.592;2022-12-29T08:36:02;33.35;;;15.07;;
74650;SDS011;63169;46.042;14.592;2022-12-29T08:38:29;25.13;;;15.57;;
74650;SDS011;63169;46.042;14.592;2022-12-29T08:40:55;30.85;;;16.25;;
74650;SDS011;63169;46.042;14.592;2022-12-29T08:43:21;31.42;;;14.90;;
74650;SDS011;63169;46.042;14.592;2022-12-29T08:45:46;29.27;;;16.15;;
74650;SDS011;63169;46.042;14.592;2022-12-29T08:48:12;33.08;;;15.90;;
74650;SDS011;63169;46.042;14.592;2022-12-29T08:50:37;26.70;;;15.48;;
74650;SDS011;63169;46.042;14.592;2022-12-29T08:53:02;27.05;;;16.65;;
74650;SDS011;63169;46.042;14.592;2022-12-29T08:55:28;36.35;;;18.23;;
74650;SDS011;63169;46.042;14.592;2022-12-29T08:57:53;52.78;;;32.42;;
74650;SDS011;63169;46.042;14.592;2022-12-29T09:00:18;31.48;;;17.00;;
74650;SDS011;63169;46.042;14.592;2022-12-29T09:02:45;24.73;;;14.10;;
74650;SDS011;63169;46.042;14.592;2022-12-29T09:05:10;20.10;;;12.48;;
74650;SDS011;63169;46.042;14.592;2022-12-29T09:07:36;26.27;;;16.33;;
74650;SDS011;63169;46.042;14.592;2022-12-29T09:10:01;25.75;;;16.08;;
74650;SDS011;63169;46.042;14.592;2022-12-29T09:12:27;21.65;;;11.18;;
74650;SDS011;63169;46.042;14.592;2022-12-29T09:14:52;20.88;;;14.93;;
74650;SDS011;63169;46.042;14.592;2022-12-29T09:17:18;26.88;;;14.32;;
74650;SDS011;63169;46.042;14.592;2022-12-29T09:20:02;30.50;;;18.65;;
74650;SDS011;63169;46.042;14.592;2022-12-29T09:22:28;30.75;;;18.55;;
74650;SDS011;63169;46.042;14.592;2022-12-29T09:24:53;29.63;;;17.90;;
74650;SDS011;63169;46.042;14.592;2022-12-29T09:27:19;28.10;;;15.82;;
74650;SDS011;63169;46.042;14.592;2022-12-29T09:29:44;29.02;;;19.40;;
74650;SDS011;63169;46.042;14.592;2022-12-29T09:32:10;30.67;;;15.50;;
74650;SDS011;63169;46.042;14.592;2022-12-29T09:34:35;22.67;;;11.70;;
74650;SDS011;63169;46.042;14.592;2022-12-29T09:37:00;22.33;;;13.65;;
74650;SDS011;63169;46.042;14.592;2022-12-29T09:39:26;21.45;;;11.38;;
74650;SDS011;63169;46.042;14.592;2022-12-29T09:47:16;20.67;;;11.82;;
74650;SDS011;63169;46.042;14.592;2022-12-29T09:52:13;16.75;;;8.77;;
74650;SDS011;63169;46.042;14.592;2022-12-29T09:54:58;18.20;;;9.05;;
74650;SDS011;63169;46.042;14.592;2022-12-29T10:05:16;13.98;;;6.85;;
74650;SDS011;63169;46.042;14.592;2022-12-29T10:07:48;15.18;;;8.15;;
74650;SDS011;63169;46.042;14.592;2022-12-29T10:10:37;11.65;;;6.82;;
74650;SDS011;63169;46.042;14.592;2022-12-29T10:13:15;15.48;;;7.97;;
74650;SDS011;63169;46.042;14.592;2022-12-29T10:15:57;16.00;;;7.97;;
74650;SDS011;63169;46.042;14.592;2022-12-29T10:18:53;15.13;;;11.90;;
74650;SDS011;63169;46.042;14.592;2022-12-29T10:24:11;24.33;;;12.88;;
74650;SDS011;63169;46.042;14.592;2022-12-29T10:26:41;31.52;;;12.98;;
74650;SDS011;63169;46.042;14.592;2022-12-29T10:31:49;25.08;;;13.65;;
74650;SDS011;63169;46.042;14.592;2022-12-29T10:34:24;19.17;;;10.13;;
74650;SDS011;63169;46.042;14.592;2022-12-29T10:36:54;20.15;;;9.02;;
74650;SDS011;63169;46.042;14.592;2022-12-29T10:42:42;20.05;;;10.32;;
74650;SDS011;63169;46.042;14.592;2022-12-29T10:45:02;19.05;;;11.23;;
74650;SDS011;63169;46.042;14.592;2022-12-29T10:47:29;15.07;;;8.15;;
74650;SDS011;63169;46.042;14.592;2022-12-29T10:49:58;12.93;;;7.15;;
74650;SDS011;63169;46.042;14.592;2022-12-29T10:52:25;16.73;;;7.85;;
74650;SDS011;63169;46.042;14.592;2022-12-29T10:54:55;13.70;;;7.47;;
74650;SDS011;63169;46.042;14.592;2022-12-29T10:59:51;22.90;;;13.65;;
74650;SDS011;63169;46.042;14.592;2022-12-29T11:07:53;12.98;;;7.57;;
74650;SDS011;63169;46.042;14.592;2022-12-29T11:12:59;19.13;;;10.13;;
74650;SDS011;63169;46.042;14.592;2022-12-29T11:15:27;16.48;;;11.60;;
74650;SDS011;63169;46.042;14.592;2022-12-29T11:17:58;30.98;;;18.27;;
74650;SDS011;63169;46.042;14.592;2022-12-29T11:22:53;19.35;;;8.55;;
74650;SDS011;63169;46.042;14.592;2022-12-29T11:25:18;18.67;;;11.65;;
74650;SDS011;63169;46.042;14.592;2022-12-29T11:28:03;23.52;;;11.15;;
74650;SDS011;63169;46.042;14.592;2022-12-29T11:30:39;19.45;;;11.55;;
74650;SDS011;63169;46.042;14.592;2022-12-29T11:33:04;20.05;;;10.88;;
74650;SDS011;63169;46.042;14.592;2022-12-29T11:35:31;18.15;;;9.70;;
74650;SDS011;63169;46.042;14.592;2022-12-29T11:38:12;15.57;;;8.45;;
74650;SDS011;63169;46.042;14.592;2022-12-29T11:40:44;19.52;;;9.57;;
74650;SDS011;63169;46.042;14.592;2022-12-29T11:43:11;19.00;;;10.38;;
74650;SDS011;63169;46.042;14.592;2022-12-29T11:45:51;19.02;;;10.25;;
74650;SDS011;63169;46.042;14.592;2022-12-29T11:48:18;19.20;;;10.52;;
74650;SDS011;63169;46.042;14.592;2022-12-29T11:50:52;23.40;;;10.88;;
74650;SDS011;63169;46.042;14.592;2022-12-29T11:53:38;19.40;;;10.07;;
74650;SDS011;63169;46.042;14.592;2022-12-29T11:56:11;17.98;;;9.98;;
74650;SDS011;63169;46.042;14.592;2022-12-29T11:58:38;17.38;;;8.82;;
74650;SDS011;63169;46.042;14.592;2022-12-29T12:03:37;23.67;;;13.75;;
74650;SDS011;63169;46.042;14.592;2022-12-29T12:06:07;22.88;;;11.65;;
74650;SDS011;63169;46.042;14.592;2022-12-29T12:08:46;23.05;;;15.32;;
74650;SDS011;63169;46.042;14.592;2022-12-29T12:11:18;24.42;;;13.45;;
74650;SDS011;63169;46.042;14.592;2022-12-29T12:13:59;23.50;;;13.80;;
74650;SDS011;63169;46.042;14.592;2022-12-29T12:16:28;23.10;;;14.00;;
74650;SDS011;63169;46.042;14.592;2022-12-29T12:19:01;22.30;;;14.43;;
74650;SDS011;63169;46.042;14.592;2022-12-29T12:21:30;27.23;;;14.57;;
74650;SDS011;63169;46.042;14.592;2022-12-29T12:27:08;18.65;;;11.48;;
74650;SDS011;63169;46.042;14.592;2022-12-29T12:32:27;17.55;;;10.05;;
74650;SDS011;63169;46.042;14.592;2022-12-29T12:34:59;16.67;;;9.25;;
74650;SDS011;63169;46.042;14.592;2022-12-29T12:45:28;16.50;;;8.30;;
74650;SDS011;63169;46.042;14.592;2022-12-29T12:55:52;19.10;;;8.63;;
74650;SDS011;63169;46.042;14.592;2022-12-29T13:01:02;16.00;;;8.85;;
74650;SDS011;63169;46.042;14.592;2022-12-29T13:26:06;18.70;;;9.15;;
74650;SDS011;63169;46.042;14.592;2022-12-29T13:28:41;15.98;;;8.13;;
74650;SDS011;63169;46.042;14.592;2022-12-29T13:31:15;16.98;;;11.63;;
74650;SDS011;63169;46.042;14.592;2022-12-29T13:36:25;14.02;;;7.50;;
74650;SDS011;63169;46.042;14.592;2022-12-29T13:39:04;13.65;;;9.40;;
74650;SDS011;63169;46.042;14.592;2022-12-29T13:41:35;22.77;;;10.73;;
74650;SDS011;63169;46.042;14.592;2022-12-29T13:44:04;18.92;;;11.48;;
74650;SDS011;63169;46.042;14.592;2022-12-29T13:46:34;20.67;;;10.85;;
74650;SDS011;63169;46.042;14.592;2022-12-29T13:49:08;19.60;;;9.40;;
74650;SDS011;63169;46.042;14.592;2022-12-29T13:51:57;26.92;;;12.98;;
74650;SDS011;63169;46.042;14.592;2022-12-29T13:57:10;22.42;;;11.43;;
74650;SDS011;63169;46.042;14.592;2022-12-29T13:59:48;22.88;;;10.85;;
74650;SDS011;63169;46.042;14.592;2022-12-29T14:02:21;19.65;;;10.73;;
74650;SDS011;63169;46.042;14.592;2022-12-29T14:04:59;17.08;;;8.90;;
74650;SDS011;63169;46.042;14.592;2022-12-29T14:07:29;18.75;;;9.50;;
74650;SDS011;63169;46.042;14.592;2022-12-29T14:10:02;15.10;;;8.15;;
74650;SDS011;63169;46.042;14.592;2022-12-29T14:12:29;16.70;;;9.10;;
74650;SDS011;63169;46.042;14.592;2022-12-29T14:15:22;19.42;;;9.90;;
74650;SDS011;63169;46.042;14.592;2022-12-29T14:18:09;15.35;;;8.82;;
74650;SDS011;63169;46.042;14.592;2022-12-29T14:20:37;22.48;;;9.10;;
74650;SDS011;63169;46.042;14.592;2022-12-29T14:28:30;13.00;;;5.60;;
74650;SDS011;63169;46.042;14.592;2022-12-29T14:31:00;12.20;;;6.78;;
74650;SDS011;63169;46.042;14.592;2022-12-29T14:33:28;12.07;;;4.93;;
74650;SDS011;63169;46.042;14.592;2022-12-29T14:35:55;12.43;;;5.00;;
74650;SDS011;63169;46.042;14.592;2022-12-29T14:38:22;15.63;;;5.63;;
74650;SDS011;63169;46.042;14.592;2022-12-29T14:40:49;18.33;;;5.03;;
74650;SDS011;63169;46.042;14.592;2022-12-29T14:43:20;12.23;;;4.75;;
74650;SDS011;63169;46.042;14.592;2022-12-29T14:45:54;13.60;;;5.60;;
74650;SDS011;63169;46.042;14.592;2022-12-29T14:48:33;13.80;;;5.93;;
74650;SDS011;63169;46.042;14.592;2022-12-29T14:51:01;14.70;;;5.88;;
74650;SDS011;63169;46.042;14.592;2022-12-29T14:56:11;14.23;;;5.35;;
74650;SDS011;63169;46.042;14.592;2022-12-29T15:01:18;13.80;;;6.05;;
74650;SDS011;63169;46.042;14.592;2022-12-29T15:03:59;13.93;;;5.28;;
74650;SDS011;63169;46.042;14.592;2022-12-29T15:06:29;14.15;;;6.43;;
74650;SDS011;63169;46.042;14.592;2022-12-29T15:09:04;14.05;;;5.82;;
74650;SDS011;63169;46.042;14.592;2022-12-29T15:14:00;13.75;;;5.93;;
74650;SDS011;63169;46.042;14.592;2022-12-29T15:16:29;14.88;;;6.45;;
74650;SDS011;63169;46.042;14.592;2022-12-29T15:19:01;16.73;;;8.18;;
74650;SDS011;63169;46.042;14.592;2022-12-29T15:21:29;16.77;;;10.15;;
74650;SDS011;63169;46.042;14.592;2022-12-29T15:23:59;14.65;;;7.35;;
74650;SDS011;63169;46.042;14.592;2022-12-29T15:26:36;14.95;;;7.35;;
74650;SDS011;63169;46.042;14.592;2022-12-29T15:29:02;12.80;;;6.63;;
74650;SDS011;63169;46.042;14.592;2022-12-29T15:31:27;12.10;;;5.20;;
74650;SDS011;63169;46.042;14.592;2022-12-29T15:33:54;15.50;;;7.88;;
74650;SDS011;63169;46.042;14.592;2022-12-29T15:36:27;16.17;;;6.18;;
74650;SDS011;63169;46.042;14.592;2022-12-29T15:38:53;15.02;;;6.20;;
74650;SDS011;63169;46.042;14.592;2022-12-29T15:46:55;17.55;;;6.18;;
74650;SDS011;63169;46.042;14.592;2022-12-29T15:49:21;12.00;;;5.15;;
74650;SDS011;63169;46.042;14.592;2022-12-29T15:51:48;10.98;;;5.38;;
74650;SDS011;63169;46.042;14.592;2022-12-29T15:54:18;13.30;;;6.10;;
74650;SDS011;63169;46.042;14.592;2022-12-29T15:56:46;15.27;;;7.57;;
74650;SDS011;63169;46.042;14.592;2022-12-29T15:59:25;19.67;;;8.98;;
74650;SDS011;63169;46.042;14.592;2022-12-29T16:01:53;14.38;;;6.22;;
74650;SDS011;63169;46.042;14.592;2022-12-29T16:04:19;12.68;;;5.38;;
74650;SDS011;63169;46.042;14.592;2022-12-29T16:06:53;12.75;;;8.88;;
74650;SDS011;63169;46.042;14.592;2022-12-29T16:09:41;12.73;;;6.22;;
74650;SDS011;63169;46.042;14.592;2022-12-29T16:12:17;12.57;;;6.03;;
74650;SDS011;63169;46.042;14.592;2022-12-29T16:14:46;13.45;;;5.43;;
74650;SDS011;63169;46.042;14.592;2022-12-29T16:17:13;12.85;;;6.15;;
74650;SDS011;63169;46.042;14.592;2022-12-29T16:19:49;12.40;;;5.93;;
74650;SDS011;63169;46.042;14.592;2022-12-29T16:22:24;12.48;;;4.53;;
74650;SDS011;63169;46.042;14.592;2022-12-29T16:24:50;9.75;;;4.43;;
74650;SDS011;63169;46.042;14.592;2022-12-29T16:30:16;16.23;;;7.05;;
74650;SDS011;63169;46.042;14.592;2022-12-29T16:32:46;16.02;;;6.35;;
74650;SDS011;63169;46.042;14.592;2022-12-29T16:37:42;14.90;;;6.55;;
74650;SDS011;63169;46.042;14.592;2022-12-29T16:42:46;13.68;;;6.47;;
74650;SDS011;63169;46.042;14.592;2022-12-29T16:47:47;13.23;;;10.25;;
74650;SDS011;63169;46.042;14.592;2022-12-29T16:50:17;12.25;;;5.80;;
74650;SDS011;63169;46.042;14.592;2022-12-29T16:52:50;10.52;;;5.72;;
74650;SDS011;63169;46.042;14.592;2022-12-29T16:55:16;11.07;;;5.63;;
74650;SDS011;63169;46.042;14.592;2022-12-29T16:57:43;14.23;;;5.95;;
74650;SDS011;63169;46.042;14.592;2022-12-29T17:00:19;19.65;;;12.98;;
74650;SDS011;63169;46.042;14.592;2022-12-29T17:02:46;11.43;;;7.10;;
74650;SDS011;63169;46.042;14.592;2022-12-29T17:05:16;13.57;;;6.70;;
74650;SDS011;63169;46.042;14.592;2022-12-29T17:07:43;11.75;;;5.55;;
74650;SDS011;63169;46.042;14.592;2022-12-29T17:10:09;13.32;;;6.95;;
74650;SDS011;63169;46.042;14.592;2022-12-29T17:12:35;14.18;;;7.13;;
74650;SDS011;63169;46.042;14.592;2022-12-29T17:15:05;14.35;;;7.07;;